TAF Text Data
IDs:
Format:
Raw Decoded Include METAR

Data at: 1358 UTC 10 Jul 2020

KBNA 101125Z 1012/1112 20003KT P6SM FEW050
  FM101900 29008G14KT P6SM VCTS SCT050CB
  FM110000 32010G15KT P6SM SCT250
  FM110400 VRB04KT P6SM SCT250